Tiempo atmosférico en la estación meteorológica de Alajar, Huelva (572 m.)

Fecha
DESCASC
Temp. máxima en grados centígrados (hora)
DESCASC
Temp. mínima en grados centígrados (hora)
DESCASC
Temp. media en grados centígrados
DESCASC
Racha de viento máxima en m/sg (hora)
DESCASC
Velocidad máxima media en intervalos de 10 minutos(hora)
DESCASC
Precipitaciones diarias en mm
DESCASC
Precipitaciones de 00:00 a 06:00 en mm
DESCASC
Precipitaciones de 06:00 a 12:00 en mm
DESCASC
Precipitaciones de 12:00 a 18:00 en mm
DESCASC
Precipitaciones de 18:00 a 24:00 en mm
DESCASC
24-09-2017 31.4 (17:30) 15.7 (08:40) 23.5 13.06 (02:00) 9.44 (02:00) 0 0 0 0 0
23-09-2017 30.8 (17:00) 14.5 (07:30) 22.6 6.67 (15:30) 3.61 (17:30) 0 0 0 0 0
22-09-2017 30.1 (16:00) 15.6 (08:00) 22.9 13.61 (01:30) 10 (01:30) 0 0 0 0 0
21-09-2017 31.3 (15:50) 17.9 (00:00) 24.6 10.83 (23:40) 7.22 (23:59) 0 0 0 0 0
20-09-2017 30.4 (17:20) 17.1 (00:00) 23.8 9.17 (01:20) 6.39 (01:10) 0 0 0 0 0
19-09-2017 30.6 (17:40) 15.5 (00:00) 23.1 15.56 (01:30) 9.72 (02:40) 0 0 0 0 0
18-09-2017 25.5 (17:20) 11.7 (00:00) 18.6 14.17 (10:40) 9.72 (09:10) 0 0 0 0 0
17-09-2017 27.9 (16:00) 14.2 (00:00) 21 10.83 (23:50) 7.5 (23:59) 0 0 0 0 0
16-09-2017 25.4 (15:50) 12.7 (00:00) 19 17.22 (01:10) 10.28 (01:20) 0 0 0 0 0
15-09-2017 24.4 (18:20) 11.5 (00:00) 17.9 16.94 (07:40) 10.83 (00:40) 0 0 0 0 0
14-09-2017 31.1 (16:30) 19.1 (00:00) 25.1 13.89 (23:40) 8.89 (23:50) 0 0 0 0 0
13-09-2017 34.9 (16:50) 19 (00:00) 27 8.89 (03:00) 6.39 (01:20) 0 0 0 0 0
12-09-2017 32.7 (16:20) 20.2 (00:00) 26.5 15 (04:50) 9.72 (06:20) 0 0 0 0 0
11-09-2017 33.4 (16:50) 19.3 (00:00) 26.4 11.94 (23:10) 7.78 (04:00) 0 0 0 0 0
10-09-2017 27.2 (17:10) 10.6 (00:00) 18.9 16.67 (09:30) 11.67 (08:50) 0 0 0 0 0
09-09-2017 26 (16:10) 13.3 (00:00) 19.7 18.89 (09:50) 12.22 (02:50) 0 0 0 0 0
08-09-2017 35.4 (15:30) 21.3 (00:00) 28.4 14.17 (23:00) 9.44 (23:00) 0 0 0 0 0
07-09-2017 35.8 (15:30) 20.8 (00:00) 28.3 11.67 (01:40) 8.33 (02:00) 0 0 0 0 0
06-09-2017 36.6 (16:40) 23 (00:00) 29.8 10.83 (05:20) 7.5 (05:20) 0 0 0 0 0
05-09-2017 34.4 (16:40) 18.7 (00:00) 26.6 12.78 (00:30) 8.89 (00:50) 0 0 0 0 0
04-09-2017 29.7 (17:10) 16.9 (00:00) 23.3 16.11 (08:20) 11.11 (08:20) 0 0 0 0 0
03-09-2017 34.1 (16:20) 17.4 (00:00) 25.7 10.83 (23:50) 7.5 (23:59) 0 0 0 0 0
02-09-2017 33.8 (15:30) 18.8 (00:00) 26.3 7.22 (14:40) 3.89 (15:00) 0 0 0 0 0
01-09-2017 34.3 (16:40) 19 (00:00) 26.6 10.28 (03:20) 7.5 (03:20) 0 0 0 0 0
31-08-2017 31.5 (18:10) 16.4 (00:00) 23.9 11.11 (03:20) 8.33 (03:00) 0 0 0 0 0
30-08-2017 27.3 (17:40) 12.5 (00:00) 19.9 7.22 (18:10) 4.44 (18:10) 0.2 0.2 0 0 0
29-08-2017 24.6 (14:00) 13.7 (00:00) 19.2 11.67 (15:20) 7.22 (15:20) 5.8 0 0 4.8 1
28-08-2017 26.2 (14:30) 13.8 (00:00) 20 9.44 (14:40) 5.28 (14:40) 0 0 0 0 0
27-08-2017 28.5 (16:30) 18.4 (00:00) 23.4 14.17 (14:10) 8.33 (14:20) 0 0 0 0 0
26-08-2017 35.2 (16:50) 21.4 (00:00) 28.3 11.11 (15:40) 6.39 (15:40) 0 0 0 0 0

Gráficas

Temp. máximas Temp. mínimas Temp. medias Precipitaciones Rachas de viento máximas Velocidades máximas media en intervalos de 10 minutos

Datos horarios

Fecha y hora oficial Temperatura (ºC) Velocidad del viento (km/h) Dirección del viento Racha (km/h) Dirección de racha Precipitación (mm) Presión (hPa) Tendencia (hPa) Humedad (%)
2017-09-24 23:00:00 22.9 21 Norte 36 Norte 0 955 0.8 35
2017-09-24 22:00:00 23.7 15 Norte 24 Norte 0 954.8 0.8 35
2017-09-24 21:00:00 24.5 18 Norte 25 Norte 0 954.3 0.3 33
2017-09-24 20:00:00 26.3 12 Norte 24 Norte 0 954.2 0.1 31
2017-09-24 19:00:00 28.5 13 Norte 22 Norte 0 954 -0.5 28
2017-09-24 18:00:00 29.9 9 Sur 25 Sudoeste 0 954 -0.8 28
2017-09-24 17:00:00 30.9 11 Oeste 23 Oeste 0 954.1 -1.1 27
2017-09-24 16:00:00 30.2 14 Sur 25 Sudoeste 0 954.5 -1 28
2017-09-24 15:00:00 29.7 8 Sudoeste 18 Sudoeste 0 954.8 -0.8 30
2017-09-24 14:00:00 29.1 9 Sudoeste 20 Sudoeste 0 955.2 -0.4 32
2017-09-24 13:00:00 27.2 9 Sudoeste 16 Sudoeste 0 955.5 0.2 34
2017-09-24 12:00:00 25.5 6 Sur 15 Sur 0 955.6 1 37
2017-09-24 11:00:00 24.3 5 Sur 11 Sudoeste 0 955.6 1.3 40
2017-09-24 10:00:00 21.1 0 Calma 5 Nordeste 0 955.3 1.6 47
2017-09-24 09:00:00 16.6 6 Nordeste 9 Nordeste 0 954.6 1.1 59
2017-09-24 08:00:00 16.1 2 Sur 5 Nordeste 0 954.3 0.9 59
2017-09-24 07:00:00 18.2 0 Calma 9 Sudoeste 0 953.7 0.2 51
2017-09-24 06:00:00 19.9 4 Nordeste 26 Norte 0 953.5 -0.1 46
2017-09-24 05:00:00 20.4 12 Nordeste 34 Norte 0 953.4 0 45
2017-09-24 04:00:00 20.2 23 Norte 41 Nordeste 0 953.5 -0.4 46
2017-09-24 03:00:00 20 20 Norte 46 Norte 0 953.6 -0.4 48
2017-09-24 02:00:00 20.4 34 Norte 47 Norte 0 953.4 -0.6 48
2017-09-24 01:00:00 18.4 6 Sur 11 Sudoeste 0 953.9 0.2 58
2017-09-24 00:00:00 17.5 4 Norte 9 Nordeste 0 954 1.1 66
2017-09-23 23:00:00 19.2 3 Nordeste 8 Nordeste 0 954 1.7 60
2017-09-23 22:00:00 21.1 6 Nordeste 9 Nordeste 0 953.7 1.8 50
2017-09-23 21:00:00 23.8 4 Oeste 15 Oeste 0 952.9 1.1 43
2017-09-23 20:00:00 26.8 3 Noroeste 10 Norte 0 952.3 0.5 30
2017-09-23 19:00:00 29 6 Norte 15 Sudeste 0 951.9 -0.3 24
2017-09-23 18:00:00 29.5 5 Norte 23 Noroeste 0 951.8 -1 23
2017-09-23 17:00:00 30.5 4 Sur 24 Sudoeste 0 951.8 -1.7 23
2017-09-23 16:00:00 30.5 9 Este 24 Sur 0 952.2 -1.5 22
2017-09-23 15:00:00 29.3 8 Sur 22 Sur 0 952.8 -0.9 26
2017-09-23 14:00:00 28.9 12 Sudoeste 21 Sudoeste 0 953.5 0.2 28
2017-09-23 13:00:00 26.9 7 Sudoeste 19 Sur 0 953.7 1 33
2017-09-23 12:00:00 25.4 9 Sudoeste 17 Sudoeste 0 953.7 1.5 36
2017-09-23 11:00:00 23.7 8 Sudoeste 12 Sur 0 953.3 1.6 39
2017-09-23 10:00:00 21 0 Calma 8 Nordeste 0 952.7 0.9 45
2017-09-23 09:00:00 15.9 5 Nordeste 12 Nordeste 0 952.2 0.8 60
2017-09-23 08:00:00 15.2 8 Nordeste 12 Nordeste 0 951.7 0.2 61
2017-09-23 07:00:00 14.8 2 Nordeste 9 Nordeste 0 951.8 0.2 63
2017-09-23 06:00:00 15.1 2 Noroeste 7 Nordeste 0 951.4 -0.2 60
2017-09-23 05:00:00 16.3 3 Este 8 Nordeste 0 951.5 -0.1 55
2017-09-23 04:00:00 17.4 3 Noroeste 9 Nordeste 0 951.6 0 51
2017-09-23 03:00:00 19.6 4 Nordeste 10 Norte 0 951.6 -0.4 42
2017-09-23 02:00:00 18.3 4 Norte 9 Oeste 0 951.6 -0.2 45
2017-09-23 01:00:00 18.4 4 Noroeste 12 Norte 0 951.6 0 46
2017-09-23 00:00:00 18.7 3 Oeste 7 Noroeste 0 952 1 46
2017-09-22 23:00:00 19.1 2 Sudoeste 11 Nordeste 0 951.8 1.5 47
2017-09-22 22:00:00 20.1 4 Nordeste 9 Norte 0 951.6 1.3 45
2017-09-22 21:00:00 22.8 4 Noroeste 11 Sudoeste 0 951 0.8 39
2017-09-22 20:00:00 25.7 8 Oeste 17 Sudoeste 0 950.3 -0.2 29
2017-09-22 19:00:00 28 6 Sudoeste 22 Oeste 0 950.3 -0.7 25
2017-09-22 18:00:00 28.7 10 Sudoeste 23 Sudoeste 0 950.2 -1.1 24
2017-09-22 17:00:00 29.4 8 Sudoeste 25 Sur 0 950.5 -1.1 24
2017-09-22 16:00:00 29.2 11 Sudoeste 22 Oeste 0 951 -0.9 25
2017-09-22 15:00:00 28.6 12 Sudoeste 26 Sudoeste 0 951.3 -0.6 26
2017-09-22 14:00:00 28.1 8 Sudoeste 25 Sudoeste 0 951.6 -0.2 27
2017-09-22 13:00:00 27.5 11 Sudoeste 21 Sudoeste 0 951.9 0.6 30
2017-09-22 12:00:00 25.7 8 Sur 17 Sudoeste 0 951.9 0.9 35
2017-09-22 11:00:00 24 9 Sudoeste 15 Sur 0 951.8 0.9 39
2017-09-22 10:00:00 21.7 0 Calma 7 Nordeste 0 951.3 0.9 46
2017-09-22 09:00:00 17 5 Nordeste 11 Nordeste 0 951 0.8 59
2017-09-22 08:00:00 15.7 4 Noroeste 9 Nordeste 0 950.9 0.5 59
2017-09-22 07:00:00 16.3 3 Norte 8 Nordeste 0 950.4 -0.2 57
2017-09-22 06:00:00 17.2 3 Norte 11 Norte 0 950.2 -0.5 58
2017-09-22 05:00:00 19.1 7 Norte 19 Noroeste 0 950.4 -0.3 54
2017-09-22 04:00:00 19.1 3 Sudoeste 40 Norte 0 950.6 -0.3 58
2017-09-22 03:00:00 18.8 27 Norte 45 Nordeste 0 950.7 -0.2 65
2017-09-22 02:00:00 19 30 Norte 49 Nordeste 0 950.7 -0.1 62
2017-09-22 01:00:00 19.7 30 Norte 45 Norte 0 950.9 0.3 57
2017-09-22 00:00:00 20.7 26 Norte 39 Nordeste 0 950.9 0.8 50
2017-09-21 23:00:00 21.6 21 Norte 33 Nordeste 0 950.8 1 43
2017-09-21 22:00:00 22.3 14 Norte 23 Norte 0 950.6 1.1 39
2017-09-21 21:00:00 22.8 14 Noroeste 23 Noroeste 0 950.1 0.7 36
2017-09-21 20:00:00 24.9 10 Noroeste 30 Norte 0 949.8 0.4 31
2017-09-21 19:00:00 26.7 14 Norte 29 Noroeste 0 949.5 -0.2 29
2017-09-21 18:00:00 29.4 8 Noroeste 30 Noroeste 0 949.4 -0.7 25
2017-09-21 17:00:00 29.8 9 Oeste 27 Sudoeste 0 949.4 -1.3 24
2017-09-21 16:00:00 29.5 12 Oeste 22 Sudoeste 0 949.7 -1.3 24
2017-09-21 15:00:00 30.5 6 Sudoeste 23 Sur 0 950.1 -1.3 23
2017-09-21 14:00:00 29.1 8 Sur 27 Sudoeste 0 950.7 -0.8 26
2017-09-21 13:00:00 28.3 7 Oeste 17 Oeste 0 951 -0.3 28
2017-09-21 12:00:00 27.5 5 Sudoeste 13 Sudoeste 0 951.4 0.5 30
2017-09-21 11:00:00 25.4 5 Sur 12 Sur 0 951.5 1.1 34
2017-09-21 10:00:00 22.8 3 Sur 12 Nordeste 0 951.3 1.2 39
2017-09-21 09:00:00 19.7 6 Nordeste 17 Nordeste 0 950.9 0.8 46
2017-09-21 08:00:00 19.3 6 Nordeste 25 Nordeste 0 950.4 0.1 46
2017-09-21 07:00:00 19.5 8 Norte 22 Nordeste 0 950.1 -0.7 47
2017-09-21 06:00:00 18.5 4 Noroeste 17 Norte 0 950.1 -0.9 50
2017-09-21 05:00:00 19 11 Norte 22 Norte 0 950.3 -1 50
2017-09-21 04:00:00 18.2 3 Oeste 17 Norte 0 950.8 -0.8 52
2017-09-21 03:00:00 20.1 13 Norte 25 Norte 0 951 -0.9 46
2017-09-21 02:00:00 19.8 14 Norte 23 Norte 0 951.3 -0.5 47
2017-09-21 01:00:00 18.3 3 Sur 16 Norte 0 951.6 0 50
2017-09-21 00:00:00 18.2 2 Norte 6 Nordeste 0 951.9 0.7 53
2017-09-20 23:00:00 19.1 3 Norte 9 Norte 0 951.8 0.6 50
2017-09-20 22:00:00 21.1 6 Noroeste 9 Noroeste 0 951.6 0.4 44
2017-09-20 21:00:00 22.6 4 Noroeste 19 Oeste 0 951.2 0.1 40
2017-09-20 20:00:00 25.3 9 Sudoeste 24 Sudoeste 0 951.2 -0.3 35
2017-09-20 19:00:00 27.9 14 Sudoeste 26 Sudoeste 0 951.2 -0.9 28
2017-09-20 18:00:00 29.2 11 Sur 25 Sur 0 951.1 -1.5 24
2017-09-20 17:00:00 30.1 8 Sudoeste 26 Sudoeste 0 951.5 -1.7 24
2017-09-20 16:00:00 30.2 10 Sudoeste 26 Sudoeste 0 952.1 -1.5 24
2017-09-20 15:00:00 29.3 10 Sudoeste 25 Sudoeste 0 952.6 -1 28
2017-09-20 14:00:00 28.7 9 Sudoeste 20 Sudoeste 0 953.2 -0.3 28
2017-09-20 13:00:00 28.1 11 Sudoeste 20 Sudoeste 0 953.6 0.3 29
2017-09-20 12:00:00 26.1 10 Sur 18 Sur 0 953.6 0.4 31
2017-09-20 11:00:00 25.3 6 Sudeste 14 Sudeste 0 953.5 0.5 31
2017-09-20 10:00:00 23 4 Sudeste 9 Sur 0 953.3 0.4 34
2017-09-20 09:00:00 18 5 Nordeste 10 Nordeste 0 953.2 0.2 48
2017-09-20 08:00:00 17.8 3 Nordeste 9 Nordeste 0 953 -0.4 45
2017-09-20 07:00:00 18.9 6 Nordeste 10 Nordeste 0 952.9 -0.8 42
2017-09-20 06:00:00 19.4 8 Norte 14 Nordeste 0 953 -0.8 41
2017-09-20 05:00:00 19.8 6 Nordeste 18 Norte 0 953.4 -0.5 40
2017-09-20 04:00:00 20.2 3 Sudeste 12 Nordeste 0 953.7 -0.3 39
2017-09-20 03:00:00 20.5 3 Este 24 Nordeste 0 953.8 -0.6 37
2017-09-20 02:00:00 21.8 19 Norte 33 Nordeste 0 953.9 -0.6 35
2017-09-20 01:00:00 21.8 19 Norte 31 Norte 0 954 -0.6 32
2017-09-20 00:00:00 21.8 21 Norte 33 Norte 0 954.4 0.6 33
2017-09-19 23:00:00 21.9 21 Norte 32 Norte 0 954.5 0.9 35
2017-09-19 22:00:00 22.6 12 Norte 28 Norte 0 954.6 1.1 31
2017-09-19 21:00:00 23.6 17 Norte 28 Norte 0 953.8 0.3 33
2017-09-19 20:00:00 25.8 15 Norte 25 Norte 0 953.6 -0.2 28
2017-09-19 19:00:00 29.2 8 Noroeste 21 Oeste 0 953.5 -1 25
2017-09-19 18:00:00 29.7 7 Noroeste 21 Noroeste 0 953.5 -1.4 22
2017-09-19 17:00:00 29.7 6 Sur 23 Sudoeste 0 953.8 -1.7 26
2017-09-19 16:00:00 29.8 7 Sudoeste 24 Oeste 0 954.5 -1.6 26
2017-09-19 15:00:00 29.4 7 Sudoeste 22 Sudoeste 0 954.9 -1.5 26
2017-09-19 14:00:00 28.2 7 Sudoeste 22 Oeste 0 955.5 -0.8 27
2017-09-19 13:00:00 27.5 8 Sur 18 Sudoeste 0 956.1 0.3 28
2017-09-19 12:00:00 25.9 7 Sur 16 Sudoeste 0 956.4 1 31
2017-09-19 11:00:00 24.5 6 Sur 11 Sudoeste 0 956.3 1.3 33
2017-09-19 10:00:00 21.3 0 Calma 5 Norte 0 955.8 0.8 46
2017-09-19 09:00:00 16.8 5 Nordeste 8 Norte 0 955.4 0.6 56
2017-09-19 08:00:00 15.5 6 Noroeste 13 Nordeste 0 955 0.3 60
2017-09-19 07:00:00 16.9 9 Nordeste 22 Norte 0 955 0.1 55
2017-09-19 06:00:00 17.1 12 Norte 37 Norte 0 954.8 -0.4 57
2017-09-19 05:00:00 16.9 22 Norte 38 Norte 0 954.7 -0.3 63
2017-09-19 04:00:00 16.9 24 Norte 45 Norte 0 954.9 -0.4 65
2017-09-19 03:00:00 16.3 31 Norte 52 Nordeste 0 955.2 -0.6 67
2017-09-19 02:00:00 16.8 31 Norte 56 Norte 0 955 -0.9 63
2017-09-19 01:00:00 17.6 28 Norte 46 Norte 0 955.3 -0.3 55
2017-09-19 00:00:00 18.7 19 Norte 32 Norte 0 955.8 0.8 49
2017-09-18 23:00:00 18.7 9 Nordeste 17 Norte 0 955.9 1.3 49
2017-09-18 22:00:00 18.8 2 Noroeste 12 Oeste 0 955.6 1.2 47
2017-09-18 21:00:00 20.4 6 Oeste 17 Norte 0 955 0.6 42
2017-09-18 20:00:00 22 14 Norte 33 Noroeste 0 954.6 0.1 41
2017-09-18 19:00:00 23.4 20 Norte 35 Norte 0 954.4 -0.4 38
2017-09-18 18:00:00 23.6 19 Norte 36 Norte 0 954.4 -0.6 40
2017-09-18 17:00:00 24.5 17 Noroeste 40 Norte 0 954.5 -1.1 40
2017-09-18 16:00:00 23.8 23 Norte 41 Norte 0 954.8 -1 41
2017-09-18 15:00:00 24.6 13 Norte 38 Norte 0 955 -0.4 42
2017-09-18 14:00:00 22.5 17 Norte 36 Noroeste 0 955.6 1 48
2017-09-18 13:00:00 22.3 13 Nordeste 37 Nordeste 0 955.8 2.1 46
2017-09-18 12:00:00 21 20 Nordeste 44 Norte 0 955.4 2.3 47
2017-09-18 11:00:00 18.3 29 Nordeste 51 Nordeste 0 954.6 1.6 45
2017-09-18 10:00:00 15 33 Norte 49 Nordeste 0 953.7 1.2 57
2017-09-18 09:00:00 13 27 Norte 45 Nordeste 0 953.1 0.7 63
2017-09-18 08:00:00 12.1 6 Noroeste 14 Noroeste 0 953 0.5 54
2017-09-18 07:00:00 12.7 8 Norte 43 Nordeste 0 952.5 -0.2 55
2017-09-18 06:00:00 14.7 8 Noroeste 21 Noroeste 0 952.4 -0.5 43
2017-09-18 05:00:00 15 15 Norte 35 Norte 0 952.5 -0.5 50
2017-09-18 04:00:00 15.3 7 Noroeste 39 Norte 0 952.7 -0.3 52
2017-09-18 03:00:00 15.4 14 Norte 37 Norte 0 952.9 -0.1 50
2017-09-18 02:00:00 15.4 17 Norte 45 Norte 0 953 0 52
2017-09-18 01:00:00 16.6 26 Norte 44 Norte 0 953 0.1 44
2017-09-18 00:00:00 18.3 27 Norte 39 Norte 0 953 0.8 35
2017-09-17 23:00:00 18.8 18 Norte 28 Noroeste 0 953 1 31
2017-09-17 22:00:00 19.2 14 Norte 22 Norte 0 952.9 1.1 25
2017-09-17 21:00:00 19.9 11 Norte 18 Norte 0 952.2 0.4 24
2017-09-17 20:00:00 23.2 11 Noroeste 24 Noroeste 0 952 0.2 22
2017-09-17 19:00:00 25.4 12 Oeste 23 Oeste 0 951.8 -0.2 19
2017-09-17 18:00:00 26.6 13 Sudoeste 27 Oeste 0 951.8 -0.8 17
2017-09-17 17:00:00 27.7 11 Sudoeste 26 Sudoeste 0 951.8 -1.1 16
2017-09-17 16:00:00 27.9 10 Sudoeste 30 Sudoeste 0 952 -1.2 15
2017-09-17 15:00:00 26.7 12 Sudoeste 27 Sudoeste 0 952.6 -0.5 15
2017-09-17 14:00:00 25.4 7 Sur 26 Sudoeste 0 952.9 0 20
2017-09-17 13:00:00 24.7 8 Oeste 21 Sudoeste 0 953.2 1 20
2017-09-17 12:00:00 23.6 9 Sudoeste 16 Sudoeste 0 953.1 1.4 24
2017-09-17 11:00:00 22.8 11 Sudoeste 15 Sudoeste 0 952.9 1.7 27
2017-09-17 10:00:00 20.6 2 Oeste 11 Norte 0 952.2 1.4 33
2017-09-17 09:00:00 15.2 6 Norte 13 Norte 0 951.7 0.9 42
2017-09-17 08:00:00 14.2 5 Noroeste 14 Norte 0 951.2 0.6 43
2017-09-17 07:00:00 15.4 5 Norte 18 Norte 0 950.8 0.1 40
2017-09-17 06:00:00 16.6 10 Norte 30 Nordeste 0 950.8 0 38
2017-09-17 05:00:00 16.9 12 Norte 26 Nordeste 0 950.6 -0.6 37
2017-09-17 04:00:00 16.2 8 Norte 29 Norte 0 950.7 -0.3 37
2017-09-17 03:00:00 16 15 Norte 27 Norte 0 950.8 0 40
2017-09-17 02:00:00 16.4 5 Noroeste 23 Nordeste 0 951.2 0.7 34
2017-09-17 01:00:00 17.7 12 Nordeste 24 Norte 0 951 1 31
2017-09-17 00:00:00 18.6 17 Norte 26 Norte 0 950.8 1.6 28
2017-09-16 23:00:00 17.9 15 Norte 26 Norte 0 950.5 1.5 32
2017-09-16 22:00:00 18.2 13 Norte 22 Norte 0 950 1.1 31
2017-09-16 21:00:00 19.1 17 Norte 21 Norte 0 949.2 0.8 29
2017-09-16 20:00:00 21.3 11 Norte 23 Norte 0 949 0.6 24
2017-09-16 19:00:00 23 15 Noroeste 24 Norte 0 948.9 0.3 19
2017-09-16 18:00:00 24.1 9 Norte 26 Noroeste 0 948.4 -0.5 18
2017-09-16 17:00:00 25.1 10 Norte 28 Norte 0 948.4 -0.8 19
2017-09-16 16:00:00 24.4 13 Norte 28 Norte 0 948.6 -0.7 20
2017-09-16 15:00:00 23.5 10 Noroeste 26 Norte 0 948.9 -0.4 20
2017-09-16 14:00:00 23.1 10 Nordeste 24 Noroeste 0 949.2 0.1 20
2017-09-16 13:00:00 21.6 12 Norte 31 Noroeste 0 949.3 1 21
2017-09-16 12:00:00 21.4 13 Nordeste 27 Nordeste 0 949.3 1.6 24
2017-09-16 11:00:00 19.9 9 Nordeste 25 Nordeste 0 949.1 1.9 30
2017-09-16 10:00:00 15.9 20 Nordeste 30 Nordeste 0 948.3 1.7 44
2017-09-16 09:00:00 13.6 23 Norte 31 Nordeste 0 947.7 1.1 49
2017-09-16 08:00:00 12.8 25 Norte 36 Norte 0 947.2 0.6 52
2017-09-16 07:00:00 13.3 26 Norte 37 Norte 0 946.6 -0.1 50
2017-09-16 06:00:00 13.3 28 Norte 40 Norte 0 946.6 -0.6 53
2017-09-16 05:00:00 12.8 29 Norte 48 Norte 0 946.6 -0.9 59
2017-09-16 04:00:00 13.2 35 Norte 48 Norte 0 946.7 -0.7 58
2017-09-16 03:00:00 14.1 32 Norte 48 Nordeste 0 947.2 -0.5 54
2017-09-16 02:00:00 14.3 34 Nordeste 62 Nordeste 0 947.5 -0.4 54
2017-09-16 01:00:00 14.8 34 Norte 55 Nordeste 0 947.4 -0.5 54
2017-09-16 00:00:00 15.4 24 Norte 39 Norte 0 947.7 0.4 53
2017-09-15 23:00:00 15.8 6 Noroeste 18 Noroeste 0 947.9 0.9 38
2017-09-15 22:00:00 16.8 5 Noroeste 10 Noroeste 0 947.9 0.8 29
2017-09-15 21:00:00 19.4 4 Oeste 18 Norte 0 947.3 0.2 21
2017-09-15 20:00:00 21.5 11 Norte 31 Noroeste 0 947 -0.4 18
2017-09-15 19:00:00 23.5 14 Norte 31 Norte 0 947.1 -0.7 20
2017-09-15 18:00:00 23.4 16 Noroeste 39 Norte 0 947.1 -1 24
2017-09-15 17:00:00 22.9 22 Norte 37 Norte 0 947.4 -1.2 25
2017-09-15 16:00:00 23.2 17 Norte 40 Noroeste 0 947.8 -1.1 26
2017-09-15 15:00:00 22.3 22 Norte 39 Nordeste 0 948.1 -0.7 29
2017-09-15 14:00:00 21.8 15 Norte 35 Norte 0 948.6 0 31
2017-09-15 13:00:00 20 21 Norte 36 Nordeste 0 948.9 0.7 36
2017-09-15 12:00:00 18.9 27 Nordeste 47 Nordeste 0 948.8 0.8 40
2017-09-15 11:00:00 16.7 25 Nordeste 46 Nordeste 0 948.6 1.3 54
2017-09-15 10:00:00 13.7 19 Norte 37 Norte 0 948.2 0.7 66
2017-09-15 09:00:00 12.5 14 Nordeste 49 Norte 0 948 0.4 71
2017-09-15 08:00:00 12.4 31 Norte 61 Nordeste 0 947.3 -0.7 71
2017-09-15 07:00:00 12 17 Norte 47 Nordeste 0 947.5 -1.3 75
2017-09-15 06:00:00 13.1 17 Nordeste 45 Nordeste 0 947.6 -1.6 68
2017-09-15 05:00:00 16.4 21 Norte 37 Norte 0 948 -1.7 33
2017-09-15 04:00:00 17.5 8 Sudoeste 50 Nordeste 0 948.8 -1.2 19
2017-09-15 03:00:00 17.9 27 Norte 51 Nordeste 0 949.2 -1 22
2017-09-15 02:00:00 18.9 23 Norte 51 Nordeste 0 949.7 -0.9 29
2017-09-15 01:00:00 19.8 29 Norte 54 Nordeste 0 950 -0.7 38
2017-09-15 00:00:00 21.1 28 Norte 50 Norte 0 950.2 -0.6 55
2017-09-14 23:00:00 24.1 21 Norte 39 Norte 0 950.6 -0.1 34
2017-09-14 22:00:00 23.5 14 Norte 24 Norte 0 950.7 -0.3 34
2017-09-14 21:00:00 24.1 3 Sudoeste 31 Noroeste 0 950.8 -0.3 35
2017-09-14 20:00:00 26 13 Norte 27 Norte 0 950.7 -1.1 31
2017-09-14 19:00:00 28.8 14 Norte 28 Noroeste 0 951 -1.3 22
2017-09-14 18:00:00 28.9 13 Norte 28 Norte 0 951.1 -2 21
2017-09-14 17:00:00 29.9 14 Norte 25 Norte 0 951.8 -1.7 19
2017-09-14 16:00:00 30.2 12 Norte 25 Nordeste 0 952.3 -2 17
2017-09-14 15:00:00 29.7 13 Norte 31 Norte 0 953.1 -1.4 18
2017-09-14 14:00:00 29.5 15 Norte 27 Sudoeste 0 953.5 -0.8 22
2017-09-14 13:00:00 29.9 11 Sudoeste 18 Sudoeste 0 954.3 0.2 28
2017-09-14 12:00:00 28.4 10 Sudoeste 16 Sudoeste 0 954.5 0.5 27
2017-09-14 11:00:00 26.8 8 Sudoeste 12 Sudoeste 0 954.3 0.6 32
2017-09-14 10:00:00 24.8 4 Sur 9 Norte 0 954.1 0.5 39
2017-09-14 09:00:00 21.2 8 Norte 18 Norte 0 954 0.3 44
2017-09-14 08:00:00 20.4 6 Noroeste 17 Noroeste 0 953.7 0.1 44
2017-09-14 07:00:00 21.3 10 Norte 28 Nordeste 0 953.6 0.1 43
2017-09-14 06:00:00 21.6 15 Norte 26 Nordeste 0 953.7 -0.5 45
2017-09-14 05:00:00 22.3 13 Noroeste 38 Nordeste 0 953.6 -1 44
2017-09-14 04:00:00 22.2 16 Norte 31 Nordeste 0 953.5 -1.4 46
2017-09-14 03:00:00 22.2 12 Noroeste 27 Norte 0 954.2 -0.8 49
2017-09-14 02:00:00 21.9 14 Norte 27 Noroeste 0 954.6 -0.6 52
2017-09-14 01:00:00 19.4 4 Sudoeste 8 Oeste 0 954.9 0.1 52
2017-09-14 00:00:00 20.2 4 Nordeste 7 Nordeste 0 955 0.8 49
2017-09-13 23:00:00 22.3 3 Noroeste 9 Noroeste 0 955.2 1.6 43
2017-09-13 22:00:00 23.8 7 Noroeste 18 Oeste 0 954.8 1.4 38
2017-09-13 21:00:00 26.7 8 Oeste 26 Oeste 0 954.2 0.5 31
2017-09-13 20:00:00 29.5 15 Sudoeste 26 Sudoeste 0 953.6 -0.4 27
2017-09-13 19:00:00 33.3 8 Sudoeste 22 Sudoeste 0 953.4 -1.1 16
2017-09-13 18:00:00 34.4 8 Oeste 24 Oeste 0 953.7 -1.3 14
2017-09-13 17:00:00 34.4 15 Sudoeste 26 Sudoeste 0 954 -1.5 13
2017-09-13 16:00:00 34.4 15 Sudoeste 31 Sudoeste 0 954.5 -1.1 14
2017-09-13 15:00:00 33.9 14 Sudoeste 25 Sudoeste 0 955 -0.7 15
2017-09-13 14:00:00 33.5 12 Sudoeste 23 Sudoeste 0 955.5 0.1 16
2017-09-13 13:00:00 32.3 6 Sudoeste 17 Sur 0 955.6 0.6 20
2017-09-13 12:00:00 30.4 6 Oeste 15 Sudoeste 0 955.7 1.2 23
2017-09-13 11:00:00 28.1 7 Sur 13 Sur 0 955.4 1.4 27
2017-09-13 10:00:00 25.7 3 Sur 6 Sur 0 955 1.5 33
2017-09-13 09:00:00 20.1 2 Sur 12 Nordeste 0 954.5 1.3 44
2017-09-13 08:00:00 19.2 0 Calma 9 Nordeste 0 954 0.7 45
2017-09-13 07:00:00 20.7 3 Noroeste 9 Norte 0 953.5 0 43
2017-09-13 06:00:00 21.6 6 Nordeste 18 Norte 0 953.2 -0.5 42
2017-09-13 05:00:00 22.4 10 Nordeste 26 Norte 0 953.3 -0.6 40
2017-09-13 04:00:00 22.8 14 Nordeste 30 Norte 0 953.5 -0.4 38
2017-09-13 03:00:00 22.6 22 Norte 32 Norte 0 953.7 -0.3 37
2017-09-13 02:00:00 23.2 21 Norte 31 Nordeste 0 953.9 -0.2 36
2017-09-13 01:00:00 23 22 Nordeste 30 Norte 0 953.9 0.4 33
2017-09-13 00:00:00 23.1 19 Norte 24 Norte 0 954 1.3 29
2017-09-12 23:00:00 22.4 14 Norte 17 Norte 0 954.1 1.9 31
2017-09-12 22:00:00 24.5 8 Norte 16 Nordeste 0 953.5 1.5 27
2017-09-12 21:00:00 24.5 12 Norte 16 Norte 0 952.7 0.9 28
2017-09-12 20:00:00 28.8 11 Norte 27 Norte 0 952.2 0.3 21
2017-09-12 19:00:00 30.9 12 Norte 28 Noroeste 0 952 -0.1 18
2017-09-12 18:00:00 31.8 12 Norte 30 Norte 0 951.8 -0.4 17
2017-09-12 17:00:00 32.4 12 Norte 26 Norte 0 951.9 -0.4 17
2017-09-12 16:00:00 31 17 Norte 32 Nordeste 0 952.1 -0.4 19
2017-09-12 15:00:00 31.3 15 Norte 31 Norte 0 952.2 0.1 19
2017-09-12 14:00:00 30.2 15 Norte 30 Nordeste 0 952.3 0.8 22
2017-09-12 13:00:00 29.1 14 Nordeste 38 Norte 0 952.5 1.5 26
2017-09-12 12:00:00 26.5 28 Nordeste 47 Norte 0 952.1 1.5 30
2017-09-12 11:00:00 25.1 31 Norte 44 Nordeste 0 951.5 1.3 32
2017-09-12 10:00:00 23 28 Nordeste 45 Norte 0 951 1.7 37
2017-09-12 09:00:00 21.1 31 Norte 45 Nordeste 0 950.6 1.4 40
2017-09-12 08:00:00 20.7 25 Norte 44 Nordeste 0 950.2 1.1 40
2017-09-12 07:00:00 21.3 28 Nordeste 49 Nordeste 0 949.3 -0.1 38
2017-09-12 06:00:00 21.3 33 Nordeste 50 Nordeste 0 949.2 -0.6 41
2017-09-12 05:00:00 21.1 28 Nordeste 54 Nordeste 0 949.1 -0.6 43
2017-09-12 04:00:00 21.5 29 Nordeste 46 Norte 0 949.4 -0.6 43
2017-09-12 03:00:00 21.3 29 Nordeste 44 Nordeste 0 949.8 -0.3 46
2017-09-12 02:00:00 22.1 28 Norte 40 Norte 0 949.7 -0.2 42
2017-09-12 01:00:00 23.4 23 Norte 41 Norte 0 950 0.3 39
2017-09-12 00:00:00 24.7 25 Norte 43 Norte 0 950.1 0.9 36
2017-09-11 23:00:00 25.6 22 Norte 37 Norte 0 949.9 0.9 32
2017-09-11 22:00:00 26.3 13 Norte 22 Norte 0 949.7 0.7 28
2017-09-11 21:00:00 27.4 14 Norte 28 Norte 0 949.2 0.3 27
2017-09-11 20:00:00 29.6 15 Norte 32 Norte 0 949 0 22
2017-09-11 19:00:00 31.5 16 Norte 29 Norte 0 949 -0.5 21
2017-09-11 18:00:00 32.5 10 Norte 26 Norte 0 948.9 -0.9 22
2017-09-11 17:00:00 33.1 15 Norte 30 Norte 0 949 -1.3 20
2017-09-11 16:00:00 33.1 9 Este 27 Nordeste 0 949.5 -1.4 20
2017-09-11 15:00:00 31.6 15 Nordeste 34 Norte 0 949.8 -1.1 21
2017-09-11 14:00:00 31.2 6 Norte 19 Este 0 950.3 -0.3 20
2017-09-11 13:00:00 30.6 4 Sudeste 18 Sudeste 0 950.9 0.7 19
2017-09-11 12:00:00 28.6 13 Nordeste 22 Norte 0 950.9 0.9 18
2017-09-11 11:00:00 26.9 5 Este 17 Nordeste 0 950.6 1 21
2017-09-11 10:00:00 24.4 3 Nordeste 10 Norte 0 950.2 1.1 26
2017-09-11 09:00:00 20.5 7 Nordeste 21 Nordeste 0 950 1.1 32
2017-09-11 08:00:00 20.8 9 Nordeste 32 Norte 0 949.6 0.6 27
2017-09-11 07:00:00 20.4 25 Norte 39 Nordeste 0 949.1 -0.2 26
2017-09-11 06:00:00 20.7 24 Norte 35 Norte 0 948.9 -1.2 24
2017-09-11 05:00:00 20.2 26 Norte 39 Nordeste 0 949 -1.3 27
2017-09-11 04:00:00 19.9 28 Nordeste 36 Nordeste 0 949.3 -1 26
2017-09-11 03:00:00 19.8 16 Nordeste 29 Nordeste 0 950.1 -0.5 26
2017-09-11 02:00:00 21 15 Nordeste 30 Nordeste 0 950.3 -0.1 23
2017-09-11 01:00:00 20.9 15 Nordeste 29 Nordeste 0 950.3 0.2 23
2017-09-11 00:00:00 21.3 12 Nordeste 30 Nordeste 0 950.6 1 23
2017-09-10 23:00:00 20.6 14 Nordeste 26 Nordeste 0 950.4 1.1 25
2017-09-10 22:00:00 20.2 9 Nordeste 22 Norte 0 950.1 1 27
2017-09-10 21:00:00 21.1 10 Norte 17 Norte 0 949.6 0.6 27
2017-09-10 20:00:00 24.5 7 Norte 29 Noroeste 0 949.3 0.1 22
2017-09-10 19:00:00 25.4 15 Norte 26 Noroeste 0 949.1 -0.7 20
2017-09-10 18:00:00 26.9 12 Nordeste 26 Norte 0 949 -1.3 17
2017-09-10 17:00:00 26.4 9 Noroeste 28 Nordeste 0 949.2 -1 20
2017-09-10 16:00:00 26.2 10 Nordeste 22 Este 0 949.8 -0.7 19
2017-09-10 15:00:00 25 11 Norte 23 Norte 0 950.3 0 21
2017-09-10 14:00:00 24.1 9 Sudeste 21 Este 0 950.2 0.5 25
2017-09-10 13:00:00 22.3 13 Este 26 Este 0 950.5 2.3 28
2017-09-10 12:00:00 20 10 Sudeste 23 Este 0 950.3 2.5 38
2017-09-10 11:00:00 17 13 Sudeste 54 Nordeste 0 949.7 1.9 51
2017-09-10 10:00:00 13.9 36 Norte 60 Nordeste 0 948.2 0.7 64
2017-09-10 09:00:00 11.4 38 Norte 59 Nordeste 0 947.8 -0.2 77
2017-09-10 08:00:00 10.6 32 Norte 53 Nordeste 0 947.8 -0.3 83
2017-09-10 07:00:00 11.1 30 Nordeste 47 Nordeste 0 947.5 -0.6 80
2017-09-10 06:00:00 11.9 23 Norte 41 Norte 0 948 -0.3 76
2017-09-10 05:00:00 12.1 22 Norte 41 Nordeste 0 948.1 -0.3 76
2017-09-10 04:00:00 12.7 25 Norte 42 Norte 0 948.1 -0.1 73
2017-09-10 03:00:00 13.4 27 Norte 42 Norte 0 948.3 0.2 69
2017-09-10 02:00:00 13.8 14 Norte 25 Norte 0 948.4 0.6 67
2017-09-10 01:00:00 14.7 12 Norte 27 Norte 0 948.2 1 65
2017-09-10 00:00:00 15.7 14 Norte 32 Norte 0 948.1 1.7 59
2017-09-09 23:00:00 16.9 13 Norte 35 Norte 0 947.8 1.7 52
2017-09-09 22:00:00 18 15 Norte 33 Noroeste 0 947.2 1.3 48
2017-09-09 21:00:00 19.4 10 Noroeste 35 Noroeste 0 946.4 0.4 46
2017-09-09 20:00:00 21.3 13 Noroeste 42 Noroeste 0 946.1 -0.2 43
2017-09-09 19:00:00 23.5 17 Noroeste 46 Norte 0 945.9 -0.7 41
2017-09-09 18:00:00 23.3 31 Norte 56 Noroeste 0 946 -1 42
2017-09-09 17:00:00 24.5 19 Norte 46 Norte 0 946.3 -1.3 38
2017-09-09 16:00:00 24.4 25 Norte 52 Norte 0 946.6 -1 40
2017-09-09 15:00:00 23.5 18 Norte 34 Norte 0 947 -0.1 47
2017-09-09 14:00:00 20.6 13 Noroeste 33 Noroeste 0 947.6 0.7 57
2017-09-09 13:00:00 18.9 12 Norte 45 Nordeste 0 947.6 1.3 65
2017-09-09 12:00:00 17.9 33 Norte 62 Noroeste 0 947.1 1.4 70
2017-09-09 11:00:00 16.1 39 Norte 56 Norte 0 946.9 1.3 78
2017-09-09 10:00:00 15 38 Norte 68 Norte 0 946.3 0.9 83
2017-09-09 09:00:00 13.9 44 Norte 67 Nordeste 0 945.7 -0.1 86
2017-09-09 08:00:00 13.6 25 Norte 57 Norte 0 945.6 -0.5 86
2017-09-09 07:00:00 13.8 22 Norte 49 Nordeste 0 945.4 -0.9 83
2017-09-09 06:00:00 15 18 Norte 39 Nordeste 0 945.8 -1.1 66
2017-09-09 05:00:00 16.4 12 Nordeste 37 Nordeste 0 946.1 -1.4 46
2017-09-09 04:00:00 19.3 33 Nordeste 49 Nordeste 0 946.3 -1 24
2017-09-09 03:00:00 17.5 40 Nordeste 65 Nordeste 0 946.9 -1.4 37
2017-09-09 02:00:00 18.7 19 Norte 50 Norte 0 947.5 -0.7 34
2017-09-09 01:00:00 21.1 37 Norte 52 Norte 0 947.3 -0.9 30
2017-09-09 00:00:00 21.7 4 Norte 45 Norte 0 948.3 0.6 27
2017-09-08 23:00:00 23.7 34 Norte 51 Norte 0 948.2 0.7 27
2017-09-08 22:00:00 26 22 Norte 37 Norte 0 948.2 0.5 16
2017-09-08 21:00:00 27.5 14 Noroeste 22 Noroeste 0 947.7 0 13
2017-09-08 20:00:00 30.7 14 Noroeste 27 Oeste 0 947.5 -0.6 12
2017-09-08 19:00:00 33 12 Noroeste 28 Noroeste 0 947.7 -0.8 10
2017-09-08 18:00:00 33.9 9 Noroeste 25 Noroeste 0 947.7 -1.2 7
2017-09-08 17:00:00 34.5 15 Noroeste 32 Noroeste 0 948.1 -1.3 7
2017-09-08 16:00:00 34.9 13 Noroeste 28 Sudoeste 0 948.5 -1.2 8
2017-09-08 15:00:00 35.1 16 Oeste 29 Sudoeste 0 948.9 -1.1 12
2017-09-08 14:00:00 34.3 13 Oeste 31 Sudoeste 0 949.4 -0.5 13
2017-09-08 13:00:00 33.5 13 Sudoeste 22 Sudoeste 0 949.7 0 14
2017-09-08 12:00:00 31.9 11 Sudoeste 17 Sudoeste 0 950 0.5 16
2017-09-08 11:00:00 29.9 7 Sudoeste 13 Sudoeste 0 949.9 0.8 18
2017-09-08 10:00:00 26.6 0 Calma 8 Nordeste 0 949.7 0.8 25
2017-09-08 09:00:00 22.2 5 Nordeste 13 Nordeste 0 949.5 0.5 24
2017-09-08 08:00:00 21.5 3 Nordeste 13 Norte 0 949.1 0.1 22
2017-09-08 07:00:00 23.9 9 Norte 21 Norte 0 948.9 -0.4 19
2017-09-08 06:00:00 25.4 13 Norte 25 Norte 0 949 -0.7 17
2017-09-08 05:00:00 25.2 19 Norte 28 Norte 0 949 -1.1 19
2017-09-08 04:00:00 25.2 20 Norte 28 Norte 0 949.3 -1 20
2017-09-08 03:00:00 24.9 15 Norte 24 Norte 0 949.7 -0.8 21
2017-09-08 02:00:00 25 19 Norte 26 Nordeste 0 950.1 -0.5 18
2017-09-08 01:00:00 25.2 20 Norte 26 Norte 0 950.3 -0.1 19
2017-09-08 00:00:00 25.3 19 Nordeste 24 Nordeste 0 950.5 0.8 26
2017-09-07 23:00:00 23.1 3 Oeste 12 Nordeste 0 950.6 1.3 34
2017-09-07 22:00:00 25.2 3 Noroeste 7 Noroeste 0 950.4 1.2 34
2017-09-07 21:00:00 27.5 5 Noroeste 19 Noroeste 0 949.7 0.5 24
2017-09-07 20:00:00 30.8 12 Norte 23 Norte 0 949.3 -0.3 18
2017-09-07 19:00:00 32.7 14 Norte 30 Norte 0 949.2 -0.9 14
2017-09-07 18:00:00 34.1 13 Norte 34 Norte 0 949.2 -1.2 16
2017-09-07 17:00:00 35 11 Norte 32 Norte 0 949.6 -1.3 17
2017-09-07 16:00:00 34.5 8 Noroeste 28 Noroeste 0 950.1 -1.2 18
2017-09-07 15:00:00 34.4 10 Sur 24 Sudoeste 0 950.4 -1.3 25
2017-09-07 14:00:00 34 11 Oeste 22 Sur 0 950.9 -0.8 27
2017-09-07 13:00:00 32.5 10 Sudoeste 17 Sudoeste 0 951.3 0.1 30
2017-09-07 12:00:00 30.6 5 Sudoeste 14 Sudoeste 0 951.7 0.6 33
2017-09-07 11:00:00 28.5 9 Sudoeste 14 Sudoeste 0 951.7 1 36
2017-09-07 10:00:00 26.2 3 Oeste 9 Nordeste 0 951.2 0.8 42
2017-09-07 09:00:00 22 8 Nordeste 10 Nordeste 0 951.1 0.6 50
2017-09-07 08:00:00 20.8 3 Noroeste 6 Noroeste 0 950.7 0.2 49
2017-09-07 07:00:00 23.4 4 Oeste 19 Nordeste 0 950.4 -0.2 44
2017-09-07 06:00:00 25.6 11 Norte 30 Norte 0 950.5 -0.5 34
2017-09-07 05:00:00 26.3 21 Norte 32 Norte 0 950.5 -1 34
2017-09-07 04:00:00 26.5 23 Norte 37 Nordeste 0 950.6 -1.3 36
2017-09-07 03:00:00 26.8 27 Norte 37 Norte 0 951 -1.2 36
2017-09-07 02:00:00 26.5 30 Nordeste 42 Nordeste 0 951.5 -0.9 38
2017-09-07 01:00:00 26.8 21 Norte 35 Norte 0 951.9 -0.3 37
2017-09-07 00:00:00 26.9 14 Norte 24 Norte 0 952.2 0.7 31
2017-09-06 23:00:00 27.4 14 Norte 20 Norte 0 952.4 1.1 34
2017-09-06 22:00:00 28.3 12 Noroeste 22 Norte 0 952.2 0.9 34
2017-09-06 21:00:00 29.2 15 Norte 20 Norte 0 951.5 -0.1 34
2017-09-06 20:00:00 31.6 12 Norte 25 Norte 0 951.3 -0.7 31
2017-09-06 19:00:00 32.2 11 Norte 22 Noroeste 0 951.3 -1.4 31
2017-09-06 18:00:00 33.7 5 Oeste 27 Oeste 0 951.6 -1.9 26
2017-09-06 17:00:00 34.9 7 Sudoeste 26 Sudoeste 0 952 -2.1 24
2017-09-06 16:00:00 35.7 13 Sudoeste 23 Sudoeste 0 952.7 -1.9 23
2017-09-06 15:00:00 35.7 10 Sudoeste 24 Oeste 0 953.5 -1.4 25
2017-09-06 14:00:00 34.3 10 Sur 25 Sudoeste 0 954.1 -0.8 28
2017-09-06 13:00:00 32.4 8 Sur 22 Sudoeste 0 954.6 -0.2 31
2017-09-06 12:00:00 31.5 8 Sudoeste 14 Sudoeste 0 954.9 0.2 34
2017-09-06 11:00:00 28.9 5 Sur 12 Sudoeste 0 954.9 0.7 41
2017-09-06 10:00:00 26.7 3 Sudoeste 6 Noroeste 0 954.8 0.8 46
2017-09-06 09:00:00 23.4 4 Oeste 7 Norte 0 954.7 0.9 53
2017-09-06 08:00:00 24.2 6 Nordeste 27 Nordeste 0 954.2 0.1 50
2017-09-06 07:00:00 24.8 17 Norte 32 Nordeste 0 954 -0.6 48
2017-09-06 06:00:00 24.6 24 Norte 39 Nordeste 0 953.8 -1.3 50
2017-09-06 05:00:00 24.7 21 Norte 33 Nordeste 0 954.1 -1.4 50
2017-09-06 04:00:00 24.9 14 Norte 32 Nordeste 0 954.6 -1.1 48
2017-09-06 03:00:00 24.7 16 Norte 31 Norte 0 955.1 -0.8 48
2017-09-06 02:00:00 23.9 5 Oeste 17 Noroeste 0 955.5 -0.4 49
2017-09-06 01:00:00 24.6 12 Norte 21 Norte 0 955.7 0.2 49
2017-09-06 00:00:00 23 4 Nordeste 11 Norte 0 955.9 1 56
2017-09-05 23:00:00 24 4 Norte 13 Norte 0 955.9 1.4 54
2017-09-05 22:00:00 25 8 Norte 12 Norte 0 955.5 1.3 54
2017-09-05 21:00:00 27 5 Noroeste 24 Oeste 0 954.9 0.8 48
2017-09-05 20:00:00 29.8 10 Oeste 26 Sudoeste 0 954.5 0.2 41
2017-09-05 19:00:00 32 11 Sudoeste 31 Sudoeste 0 954.2 -0.5 38
2017-09-05 18:00:00 33.2 12 Sudoeste 24 Sudoeste 0 954.1 -0.8 34
2017-09-05 17:00:00 33.4 13 Sudoeste 23 Oeste 0 954.3 -1 31
2017-09-05 16:00:00 33.1 4 Oeste 21 Sudoeste 0 954.7 -0.8 29
2017-09-05 15:00:00 33.3 9 Sudoeste 26 Sur 0 954.9 -0.6 30
2017-09-05 14:00:00 31.9 11 Sudoeste 22 Sudoeste 0 955.3 0 34
2017-09-05 13:00:00 30.4 13 Sur 25 Sur 0 955.5 0.8 36
2017-09-05 12:00:00 28.3 10 Sur 19 Sur 0 955.5 1.4 41
2017-09-05 11:00:00 26.5 4 Sur 13 Sudoeste 0 955.3 1.9 46
2017-09-05 10:00:00 24.3 9 Sudoeste 15 Sudoeste 0 954.7 1.7 52
2017-09-05 09:00:00 20.3 2 Nordeste 8 Nordeste 0 954.1 1.2 66
2017-09-05 08:00:00 19 3 Sudeste 10 Nordeste 0 953.4 0.5 69
2017-09-05 07:00:00 19.6 6 Nordeste 14 Norte 0 953 0.1 68
2017-09-05 06:00:00 20.4 13 Nordeste 36 Norte 0 952.9 -0.2 67
2017-09-05 05:00:00 20.3 23 Norte 40 Norte 0 952.9 -0.2 69
2017-09-05 04:00:00 21.3 18 Norte 32 Norte 0 952.9 0.1 65
2017-09-05 03:00:00 20.2 21 Norte 42 Norte 0 953.1 0.3 69
2017-09-05 02:00:00 20.9 22 Norte 46 Nordeste 0 953.1 0.5 65
2017-09-05 01:00:00 22.2 25 Norte 46 Nordeste 0 952.8 0.6 59
2017-09-05 00:00:00 23.3 25 Norte 42 Norte 0 952.8 1 55
2017-09-04 23:00:00 24 24 Norte 39 Norte 0 952.6 1.1 53
2017-09-04 22:00:00 23.7 19 Norte 26 Norte 0 952.2 1 55
2017-09-04 21:00:00 24.3 9 Norte 22 Noroeste 0 951.8 0.8 53
2017-09-04 20:00:00 26.8 14 Noroeste 26 Norte 0 951.5 0.2 46
2017-09-04 19:00:00 27.8 16 Norte 28 Noroeste 0 951.2 -0.3 43
2017-09-04 18:00:00 28.7 11 Norte 34 Noroeste 0 951 -0.9 40
2017-09-04 17:00:00 29 10 Norte 31 Norte 0 951.3 -0.8 40
2017-09-04 16:00:00 28.3 14 Norte 33 Noroeste 0 951.5 -0.6 42
2017-09-04 15:00:00 27 14 Norte 31 Noroeste 0 951.9 -0.2 42
2017-09-04 14:00:00 26 13 Norte 32 Nordeste 0 952.1 0.9 45
2017-09-04 13:00:00 25 18 Norte 31 Norte 0 952.1 2 47
2017-09-04 12:00:00 23.8 12 Norte 34 Nordeste 0 952.1 2.4 50
2017-09-04 11:00:00 22.2 13 Norte 51 Nordeste 0 951.2 1.9 55
2017-09-04 10:00:00 20.4 33 Norte 58 Nordeste 0 950.1 0.9 61
2017-09-04 09:00:00 18.5 38 Norte 58 Norte 0 949.7 0.4 66
2017-09-04 08:00:00 17 36 Norte 55 Norte 0 949.3 -0.1 67
2017-09-04 07:00:00 18.2 32 Norte 49 Norte 0 949.2 -0.5 62
2017-09-04 06:00:00 18.5 26 Norte 43 Norte 0 949.3 -0.6 59
2017-09-04 05:00:00 19.2 30 Nordeste 51 Nordeste 0 949.4 -0.8 53
2017-09-04 04:00:00 20.4 36 Nordeste 51 Nordeste 0 949.7 -0.7 45
2017-09-04 03:00:00 21.3 26 Norte 55 Nordeste 0 949.9 -0.4 36
2017-09-04 02:00:00 21.8 32 Norte 53 Norte 0 950.2 -0.2 31
2017-09-04 01:00:00 22.4 24 Norte 40 Norte 0 950.4 0.3 28
2017-09-04 00:00:00 24.2 27 Norte 39 Norte 0 950.3 0.7 23
2017-09-03 23:00:00 25.1 21 Norte 36 Norte 0 950.4 0.8 19
2017-09-03 22:00:00 26 21 Norte 35 Norte 0 950.1 0.4 20
2017-09-03 21:00:00 26.3 13 Norte 18 Norte 0 949.6 -0.1 27
2017-09-03 20:00:00 29.9 12 Noroeste 26 Norte 0 949.6 -0.3 20
2017-09-03 19:00:00 31.4 9 Noroeste 28 Noroeste 0 949.7 -0.6 19
2017-09-03 18:00:00 32.2 14 Noroeste 28 Noroeste 0 949.7 -1.2 20
2017-09-03 17:00:00 32.4 13 Noroeste 28 Oeste 0 949.9 -1.4 21
2017-09-03 16:00:00 33.4 12 Oeste 30 Oeste 0 950.3 -1.6 20
2017-09-03 15:00:00 32.5 16 Sur 30 Sur 0 950.9 -1.3 25
2017-09-03 14:00:00 32.2 17 Sur 29 Sur 0 951.3 -1 28
2017-09-03 13:00:00 30.9 11 Sudoeste 22 Sudoeste 0 951.9 -0.1 28
2017-09-03 12:00:00 28.9 9 Sudoeste 15 Sudoeste 0 952.2 0.3 34
2017-09-03 11:00:00 26.6 8 Sudoeste 14 Oeste 0 952.3 0.5 40
2017-09-03 10:00:00 23.3 6 Oeste 11 Oeste 0 952 0.1 44
2017-09-03 09:00:00 18.5 0 Calma 6 Noroeste 0 951.9 0.1 62
2017-09-03 08:00:00 17.5 3 Oeste 7 Noroeste 0 951.8 -0.3 67
2017-09-03 07:00:00 17.7 0 Calma 6 Nordeste 0 951.9 -0.5 74
2017-09-03 06:00:00 18.1 4 Nordeste 6 Nordeste 0 951.8 -0.8 73
2017-09-03 05:00:00 18.6 4 Nordeste 6 Nordeste 0 952.1 -1.1 72
2017-09-03 04:00:00 19 3 Noroeste 9 Nordeste 0 952.4 -1.2 74
2017-09-03 03:00:00 20.3 3 Oeste 11 Noroeste 0 952.6 -1.1 76
2017-09-03 02:00:00 20.9 3 Oeste 12 Noroeste 0 953.2 -0.5 75
2017-09-03 01:00:00 21.5 4 Noroeste 12 Noroeste 0 953.6 0.5 72
2017-09-03 00:00:00 22.2 8 Noroeste 14 Noroeste 0 953.7 1.4 70
2017-09-02 23:00:00 22.9 5 Noroeste 13 Sudoeste 0 953.7 2 68
2017-09-02 22:00:00 25.2 4 Sudoeste 22 Oeste 0 953.1 1.2 60
2017-09-02 21:00:00 27.3 8 Sudoeste 20 Sudoeste 0 952.3 0.4 46
2017-09-02 20:00:00 31 0 Calma 8 Nordeste 0 951.7 -0.7 30
2017-09-02 19:00:00 32.2 7 Norte 19 Sur 0 951.9 -0.9 27
2017-09-02 18:00:00 33.5 6 Sudoeste 21 Sudeste 0 951.9 -1.4 26
2017-09-02 17:00:00 30.5 3 Norte 17 Sudeste 0 952.4 -1.2 33
2017-09-02 16:00:00 31 8 Norte 21 Sur 0 952.8 -1.2 31
2017-09-02 15:00:00 32.4 14 Sudoeste 26 Sur 0 953.3 -1 32
2017-09-02 14:00:00 30.3 7 Oeste 23 Sudeste 0 953.6 -0.2 38
2017-09-02 13:00:00 29.7 6 Sudoeste 19 Sur 0 954 0.6 39
2017-09-02 12:00:00 28.4 10 Sur 19 Sur 0 954.3 1.4 36
2017-09-02 11:00:00 26.2 7 Sur 14 Sur 0 953.8 1.5 35
2017-09-02 10:00:00 24 6 Sur 10 Sur 0 953.4 1.5 38
2017-09-02 09:00:00 20.1 6 Nordeste 11 Nordeste 0 952.9 1.2 47
2017-09-02 08:00:00 19.7 4 Este 14 Nordeste 0 952.3 0.5 43
2017-09-02 07:00:00 19.7 3 Nordeste 8 Nordeste 0 951.9 0 46
2017-09-02 06:00:00 21 4 Sur 13 Nordeste 0 951.7 -0.5 47
2017-09-02 05:00:00 21 7 Nordeste 13 Nordeste 0 951.8 -0.2 37
2017-09-02 04:00:00 18.9 5 Norte 12 Nordeste 0 951.9 0 45
2017-09-02 03:00:00 20.4 6 Nordeste 13 Nordeste 0 952.2 0.6 40
2017-09-02 02:00:00 21.7 5 Nordeste 9 Sudeste 0 952 0.5 37
2017-09-02 01:00:00 23.1 5 Este 9 Este 0 951.9 1 34
2017-09-02 00:00:00 21.7 5 Este 11 Este 0 951.6 1.5 47
2017-09-01 23:00:00 23.1 4 Nordeste 11 Nordeste 0 951.5 2.2 45
2017-09-01 22:00:00 24 8 Nordeste 14 Nordeste 0 950.9 1.6 37
2017-09-01 21:00:00 27.8 5 Sur 23 Norte 0 950.1 1 29
2017-09-01 20:00:00 30.1 15 Norte 22 Norte 0 949.3 -0.2 27
2017-09-01 19:00:00 31.6 5 Norte 15 Noroeste 0 949.3 -0.6 23
2017-09-01 18:00:00 31.6 8 Norte 20 Norte 0 949.1 -1.3 23
2017-09-01 17:00:00 31.1 12 Norte 17 Norte 0 949.5 -1.3 25
2017-09-01 16:00:00 33 13 Norte 24 Norte 0 949.9 -1.5 24
2017-09-01 15:00:00 33.2 11 Sudeste 21 Este 0 950.4 -1.2 24
2017-09-01 14:00:00 32 9 Este 21 Este 0 950.8 -0.7 25
2017-09-01 13:00:00 32.1 9 Sudeste 23 Sudeste 0 951.4 0.2 26
2017-09-01 12:00:00 30.2 12 Sur 24 Sur 0 951.6 0.8 28
2017-09-01 11:00:00 28.3 7 Sur 15 Sudeste 0 951.5 1 34
2017-09-01 10:00:00 24.9 2 Sudoeste 6 Sudoeste 0 951.2 1.1 43
2017-09-01 09:00:00 21.2 3 Norte 10 Norte 0 950.8 0.8 53
2017-09-01 08:00:00 19.3 3 Este 9 Norte 0 950.5 0.6 55
2017-09-01 07:00:00 20.5 4 Norte 14 Nordeste 0 950.1 0.1 50
2017-09-01 06:00:00 22 4 Sudeste 27 Norte 0 950 -0.3 44
2017-09-01 05:00:00 22.3 19 Norte 36 Norte 0 949.9 -0.6 44
2017-09-01 04:00:00 22.6 24 Norte 37 Nordeste 0 950 -0.5 43
2017-09-01 03:00:00 22.5 17 Norte 27 Norte 0 950.3 -0.4 42
2017-09-01 02:00:00 22.7 17 Nordeste 26 Nordeste 0 950.5 -0.1 42
2017-09-01 01:00:00 22.7 20 Nordeste 29 Norte 0 950.5 0.8 43
2017-09-01 00:00:00 23.2 20 Norte 28 Nordeste 0 950.7 1.4 43
2017-08-31 23:00:00 23.1 13 Norte 30 Norte 0 950.6 1.5 45
2017-08-31 22:00:00 25.1 23 Norte 31 Nordeste 0 949.7 0.7 41
2017-08-31 21:00:00 26 15 Norte 25 Norte 0 949.3 0.3 41
2017-08-31 20:00:00 28.8 10 Norte 18 Norte 0 949.1 -0.2 31
2017-08-31 19:00:00 29.8 10 Norte 20 Este 0 949 -0.8 28
2017-08-31 18:00:00 31.2 4 Sudoeste 27 Nordeste 0 949 -1.4 26
2017-08-31 17:00:00 30.1 8 Nordeste 21 Nordeste 0 949.3 -1.6 27
2017-08-31 16:00:00 29.4 12 Norte 26 Nordeste 0 949.8 -1.6 29
2017-08-31 15:00:00 30 9 Norte 22 Nordeste 0 950.4 -1.1 28
2017-08-31 14:00:00 29.7 6 Noroeste 20 Sudeste 0 950.9 -0.5 30
2017-08-31 13:00:00 28 5 Sudoeste 19 Sudeste 0 951.4 0.4 31
2017-08-31 12:00:00 27.3 7 Este 18 Sudeste 0 951.5 0.7 34
2017-08-31 11:00:00 26.1 10 Sur 15 Sudeste 0 951.4 1.2 39
2017-08-31 10:00:00 23.9 6 Este 13 Este 0 951 1.2 47
2017-08-31 09:00:00 19.7 4 Nordeste 9 Norte 0 950.8 1.3 63
2017-08-31 08:00:00 19 6 Nordeste 25 Norte 0 950.2 0.7 65
2017-08-31 07:00:00 19.2 18 Norte 31 Norte 0 949.8 0.2 67
2017-08-31 06:00:00 19 15 Norte 33 Nordeste 0 949.5 -0.3 69
2017-08-31 05:00:00 18.4 22 Norte 38 Norte 0 949.5 -0.8 72
2017-08-31 04:00:00 18.7 26 Norte 40 Nordeste 0 949.6 -0.8 70
2017-08-31 03:00:00 18.7 30 Norte 40 Nordeste 0 949.8 -0.8 71
2017-08-31 02:00:00 18.5 12 Norte 22 Norte 0 950.3 -0.6 68
2017-08-31 01:00:00 16.8 2 Oeste 9 Norte 0 950.4 0 83
2017-08-31 00:00:00 17.6 4 Nordeste 12 Nordeste 0 950.6 1 79
2017-08-30 23:00:00 19.6 2 Sur 11 Sudoeste 0 950.9 1.4 70
2017-08-30 22:00:00 21.2 3 Sudoeste 17 Norte 0 950.4 0.9 58
2017-08-30 21:00:00 21.7 9 Norte 12 Norte 0 949.6 0.2 52
2017-08-30 20:00:00 25.3 8 Norte 15 Noroeste 0 949.5 0 40
2017-08-30 19:00:00 25.8 11 Norte 26 Noroeste 0 949.5 -0.5 40
2017-08-30 18:00:00 26.4 10 Norte 22 Noroeste 0 949.4 -1 36
2017-08-30 17:00:00 25.2 10 Norte 22 Norte 0 949.5 -1.1 38
2017-08-30 16:00:00 25.7 6 Nordeste 17 Norte 0 950 -0.9 38
2017-08-30 15:00:00 24.4 3 Oeste 17 Sudoeste 0 950.4 -0.3 45
2017-08-30 14:00:00 24.9 6 Sudoeste 15 Sur 0 950.6 -0.3 43
2017-08-30 13:00:00 23.1 7 Sur 15 Sudoeste 0 950.9 0.1 54
2017-08-30 12:00:00 22.4 6 Sur 12 Sudoeste 0 950.7 0.4 60
2017-08-30 11:00:00 20.2 5 Sur 10 Sur 0 950.9 1 72
2017-08-30 10:00:00 18.1 4 Sur 7 Sur 0 950.8 1.7 85
2017-08-30 09:00:00 14.6 5 Nordeste 9 Nordeste 0 950.3 0.8 96
2017-08-30 08:00:00 13 3 Noroeste 10 Nordeste 0 949.9 0.4 95
2017-08-30 07:00:00 12.9 2 Nordeste 12 Nordeste 0 949.1 0 95
2017-08-30 06:00:00 13.3 6 Nordeste 10 Nordeste 0 949.5 -0.1 96
2017-08-30 05:00:00 12.8 4 Nordeste 10 Nordeste 0 949.5 -0.1 94
2017-08-30 04:00:00 12.9 3 Noroeste 13 Nordeste 0 949.1 -0.7 95
2017-08-30 03:00:00 13.3 5 Nordeste 11 Nordeste 0 949.6 0.3 93
2017-08-30 02:00:00 13.6 8 Nordeste 13 Nordeste 0 949.6 0.3 93
2017-08-30 01:00:00 13.6 6 Nordeste 13 Nordeste 0.2 949.8 1.2 95
2017-08-30 00:00:00 14.1 7 Nordeste 12 Nordeste 0 949.3 1.1 95
2017-08-29 23:00:00 14.3 3 Nordeste 11 Nordeste 0 949.3 1.3 96
2017-08-29 22:00:00 14.8 5 Norte 9 Nordeste 0 948.6 0.5 94
2017-08-29 21:00:00 15.8 5 Norte 10 Norte 0.2 948.2 -0.1 91
2017-08-29 20:00:00 16 4 Norte 12 Norte 0.4 948 -0.2 93
2017-08-29 19:00:00 16.6 3 Noroeste 9 Norte 0.4 948.1 -0.4 94
2017-08-29 18:00:00 16.7 5 Noroeste 8 Nordeste 0.8 948.3 0.1 92
2017-08-29 17:00:00 16 6 Norte 10 Nordeste 0.6 948.2 -0.1 96
2017-08-29 16:00:00 15.3 4 Norte 42 Norte 3.2 948.5 -0.5 90
2017-08-29 15:00:00 17.9 16 Nordeste 34 Nordeste 0.2 948.2 -1 74
2017-08-29 14:00:00 24.1 10 Sur 22 Sudoeste 0 948.3 -1 47
2017-08-29 13:00:00 20.3 8 Noroeste 14 Noroeste 0 949 0 65
2017-08-29 12:00:00 19 7 Noroeste 14 Sudoeste 0 949.2 0.6 74
2017-08-29 11:00:00 19.6 5 Sur 12 Sudeste 0 949.3 1 69
2017-08-29 10:00:00 17.5 3 Sudoeste 7 Sur 0 949 1.3 80
2017-08-29 09:00:00 16.1 0 Calma 10 Sudeste 0 948.6 0.6 89
2017-08-29 08:00:00 15.6 2 Sur 6 Sudeste 0 948.3 0 88
2017-08-29 07:00:00 15.3 3 Nordeste 7 Nordeste 0 947.7 -0.9 88
2017-08-29 06:00:00 14.4 5 Norte 11 Nordeste 0 948 -0.9 90
2017-08-29 05:00:00 15 3 Norte 6 Nordeste 0 948.3 -1.1 88
2017-08-29 04:00:00 15.4 5 Nordeste 7 Nordeste 0 948.6 -0.6 88
2017-08-29 03:00:00 15.8 2 Nordeste 7 Este 0 948.9 -0.4 88
2017-08-29 02:00:00 16.4 4 Este 9 Norte 0 949.4 0.2 85
2017-08-29 01:00:00 16.7 2 Nordeste 9 Nordeste 0 949.2 0 82
2017-08-29 00:00:00 17.6 2 Sudoeste 16 Sur 0 949.3 0.6 80
2017-08-28 23:00:00 18.1 6 Sudoeste 17 Oeste 0 949.2 1.3 77
2017-08-28 22:00:00 18.3 9 Sudoeste 29 Sudoeste 0 949.2 1.1 72
2017-08-28 21:00:00 19 16 Sudoeste 31 Sudoeste 0 948.7 0.7 71
2017-08-28 20:00:00 20.7 14 Sudoeste 29 Sudoeste 0 947.9 0 60
2017-08-28 19:00:00 22.1 15 Sudoeste 31 Sudoeste 0 948.1 -0.5 56
2017-08-28 18:00:00 23.4 19 Sudoeste 31 Sudoeste 0 948 -1.1 50
2017-08-28 17:00:00 25.3 14 Sudoeste 26 Sudoeste 0 947.9 -1.4 45
2017-08-28 16:00:00 23.5 8 Oeste 25 Sudoeste 0 948.6 -1 51
2017-08-28 15:00:00 25.5 11 Sudoeste 34 Sudoeste 0 949.1 -0.6 44
2017-08-28 14:00:00 25.1 12 Sudoeste 30 Sur 0 949.3 -0.5 43
2017-08-28 13:00:00 23.6 15 Sudoeste 28 Sudoeste 0 949.6 0.3 46
2017-08-28 12:00:00 22.9 14 Sudoeste 24 Sudoeste 0 949.7 1 52
2017-08-28 11:00:00 21.4 10 Sudoeste 18 Sudoeste 0 949.8 1.7 56
2017-08-28 10:00:00 19.4 4 Sudoeste 8 Sur 0 949.3 1.3 60
2017-08-28 09:00:00 14.8 3 Este 6 Nordeste 0 948.7 0.7 82
2017-08-28 08:00:00 13.9 3 Oeste 9 Nordeste 0 948.1 -0.2 86
2017-08-28 07:00:00 14.5 4 Nordeste 10 Este 0 948 -0.5 85
2017-08-28 06:00:00 14.9 3 Nordeste 8 Oeste 0 948 -0.5 82
2017-08-28 05:00:00 15.5 3 Nordeste 9 Nordeste 0 948.3 -0.6 79
2017-08-28 04:00:00 15.6 5 Nordeste 9 Nordeste 0 948.5 -0.3 78
2017-08-28 03:00:00 15.8 3 Sur 10 Norte 0 948.5 -0.3 77
2017-08-28 02:00:00 16.5 3 Nordeste 7 Nordeste 0 948.9 0.6 75
2017-08-28 01:00:00 16.9 4 Norte 9 Noroeste 0 948.8 1.2 67
2017-08-28 00:00:00 18.4 3 Noroeste 8 Noroeste 0 948.8 1.7 60
2017-08-27 23:00:00 19.5 5 Nordeste 15 Sudoeste 0 948.3 1.5 60
2017-08-27 22:00:00 21.8 12 Sudoeste 21 Sudoeste 0 947.6 0.8 52
2017-08-27 21:00:00 23.8 8 Sudoeste 29 Sudoeste 0 947.1 0.3 34
2017-08-27 20:00:00 25.7 18 Sudoeste 36 Sudoeste 0 946.8 -0.7 28
2017-08-27 19:00:00 27.7 11 Sur 38 Sudoeste 0 946.8 -0.9 22
2017-08-27 18:00:00 27.5 25 Sudoeste 41 Sudeste 0 946.8 -1.3 35
2017-08-27 17:00:00 28.2 14 Sur 42 Sudoeste 0 947.5 -0.8 44
2017-08-27 16:00:00 27.3 22 Sudoeste 42 Sudoeste 0 947.7 -0.6 52
2017-08-27 15:00:00 26.7 20 Sur 51 Sudoeste 0 948.1 -0.3 52
2017-08-27 14:00:00 25.9 19 Sudoeste 43 Sudoeste 0 948.3 -0.3 58
2017-08-27 13:00:00 26 16 Sur 35 Sudeste 0 948.3 0.1 63
2017-08-27 12:00:00 24.6 11 Sudoeste 27 Oeste 0 948.4 1 66
2017-08-27 11:00:00 21.8 12 Sudoeste 30 Sudoeste 0 948.6 2.3 77
2017-08-27 10:00:00 22.8 16 Sudoeste 32 Sudoeste 0 948.2 1.4 68
2017-08-27 09:00:00 21.9 10 Sur 23 Sur 0 947.4 -0.1 71
2017-08-27 08:00:00 21.5 12 Este 25 Sudeste 0 946.3 -0.7 75
2017-08-27 07:00:00 21.8 5 Noroeste 17 Sudoeste 0 946.8 -1.1 70
2017-08-27 06:00:00 22.3 7 Sur 22 Sudoeste 0 947.5 -0.5 68
2017-08-27 05:00:00 22.7 7 Sur 14 Sur 0 947 -0.7 61
2017-08-27 04:00:00 23.3 8 Sur 24 Sudoeste 0 947.9 0.4 60
2017-08-27 03:00:00 24.1 6 Sur 19 Oeste 0 948 0 57
2017-08-27 02:00:00 24.9 5 Oeste 18 Oeste 0 947.7 0.1 53
2017-08-27 01:00:00 25.3 5 Sudeste 23 Este 0 947.5 0.1 49
2017-08-27 00:00:00 24.9 5 Noroeste 17 Oeste 0 948 0.9 51
2017-08-26 23:00:00 25.7 4 Oeste 18 Noroeste 0 947.6 0.5 48
2017-08-26 22:00:00 27.5 10 Oeste 25 Sur 0 947.4 0.1 40
2017-08-26 21:00:00 29.4 12 Sur 21 Sur 0 947.1 -0.2 30
2017-08-26 20:00:00 30.3 14 Sur 31 Sur 0 947.1 0.1 28
2017-08-26 19:00:00 32.1 17 Sur 31 Sur 0 947.3 -0.1 22
2017-08-26 18:00:00 32.1 17 Sur 35 Sur 0 947.3 -1.9 18
2017-08-26 17:00:00 34.4 19 Sudeste 34 Sudeste 0 947 -2.3 15
2017-08-26 16:00:00 33.1 14 Sudeste 40 Sur 0 947.4 -1.8 18
2017-08-26 15:00:00 32 11 Sur 24 Sur 0 949.2 0.3 19
2017-08-26 14:00:00 32.6 9 Sudeste 17 Sur 0 949.3 -0.1 19
2017-08-26 13:00:00 29.7 8 Sudeste 32 Nordeste 0 949.2 -0.3 22
2017-08-26 12:00:00 28.2 21 Norte 36 Norte 0 948.9 -1 25
2017-08-26 11:00:00 27.5 6 Sudeste 16 Norte 0 949.4 0.6 26
2017-08-26 10:00:00 26.2 4 Sudoeste 11 Norte 0 949.5 0.6 29
2017-08-26 09:00:00 24.4 5 Noroeste 12 Norte 0 949.9 1.3 32
2017-08-26 08:00:00 23.8 6 Norte 22 Oeste 0 948.8 0.1 39
2017-08-26 07:00:00 23.9 5 Norte 13 Este 0 948.9 0.2 31
2017-08-26 06:00:00 23.3 9 Este 13 Este 0 948.6 -0.4 30
2017-08-26 05:00:00 22.6 9 Nordeste 15 Este 0 948.7 -0.7 28
2017-08-26 04:00:00 22.6 7 Nordeste 9 Este 0 948.7 -1 40
2017-08-26 03:00:00 21.5 3 Noroeste 9 Nordeste 0 949 -0.8 42
2017-08-26 02:00:00 22.4 7 Nordeste 12 Nordeste 0 949.4 -0.4 35
2017-08-26 01:00:00 21.9 4 Nordeste 10 Este 0 949.7 0 43
2017-08-26 00:00:00 21.9 4 Oeste 6 Este 0 949.8 0.6 42